sensor_id;sensor_type;location;lat;lon;timestamp;P1;durP1;ratioP1;P2;durP2;ratioP2
26600;SDS011;14241;49.260;10.496;2023-11-21T00:00:12;3.72;;;1.90;;
26600;SDS011;14241;49.260;10.496;2023-11-21T00:02:38;5.07;;;1.63;;
26600;SDS011;14241;49.260;10.496;2023-11-21T00:05:05;5.07;;;1.88;;
26600;SDS011;14241;49.260;10.496;2023-11-21T00:07:32;3.30;;;1.58;;
26600;SDS011;14241;49.260;10.496;2023-11-21T00:09:57;4.47;;;1.50;;
26600;SDS011;14241;49.260;10.496;2023-11-21T00:12:23;4.17;;;1.53;;
26600;SDS011;14241;49.260;10.496;2023-11-21T00:14:49;5.25;;;2.13;;
26600;SDS011;14241;49.260;10.496;2023-11-21T00:17:14;4.70;;;1.53;;
26600;SDS011;14241;49.260;10.496;2023-11-21T00:19:40;3.03;;;1.50;;
26600;SDS011;14241;49.260;10.496;2023-11-21T00:22:05;3.23;;;1.50;;
26600;SDS011;14241;49.260;10.496;2023-11-21T00:24:31;5.63;;;1.83;;
26600;SDS011;14241;49.260;10.496;2023-11-21T00:26:56;3.30;;;1.90;;
26600;SDS011;14241;49.260;10.496;2023-11-21T00:29:22;4.13;;;1.80;;
26600;SDS011;14241;49.260;10.496;2023-11-21T00:31:47;2.97;;;1.63;;
26600;SDS011;14241;49.260;10.496;2023-11-21T00:34:12;5.25;;;2.13;;
26600;SDS011;14241;49.260;10.496;2023-11-21T00:36:37;4.27;;;1.80;;
26600;SDS011;14241;49.260;10.496;2023-11-21T00:39:03;4.30;;;1.70;;
26600;SDS011;14241;49.260;10.496;2023-11-21T00:41:28;3.95;;;1.92;;
26600;SDS011;14241;49.260;10.496;2023-11-21T00:43:53;5.13;;;1.63;;
26600;SDS011;14241;49.260;10.496;2023-11-21T00:46:20;6.18;;;1.90;;
26600;SDS011;14241;49.260;10.496;2023-11-21T00:48:45;5.57;;;1.73;;
26600;SDS011;14241;49.260;10.496;2023-11-21T00:51:10;4.10;;;1.70;;
26600;SDS011;14241;49.260;10.496;2023-11-21T00:53:35;5.17;;;1.93;;
26600;SDS011;14241;49.260;10.496;2023-11-21T00:56:00;3.63;;;1.70;;
26600;SDS011;14241;49.260;10.496;2023-11-21T00:58:25;3.60;;;1.95;;
26600;SDS011;14241;49.260;10.496;2023-11-21T01:00:51;6.50;;;1.90;;
26600;SDS011;14241;49.260;10.496;2023-11-21T01:03:16;5.13;;;1.83;;
26600;SDS011;14241;49.260;10.496;2023-11-21T01:05:41;5.07;;;1.85;;
26600;SDS011;14241;49.260;10.496;2023-11-21T01:08:06;3.53;;;1.83;;
26600;SDS011;14241;49.260;10.496;2023-11-21T01:10:31;5.70;;;1.80;;
26600;SDS011;14241;49.260;10.496;2023-11-21T01:12:57;4.50;;;2.10;;
26600;SDS011;14241;49.260;10.496;2023-11-21T01:15:23;3.92;;;1.85;;
26600;SDS011;14241;49.260;10.496;2023-11-21T01:17:48;8.57;;;2.30;;
26600;SDS011;14241;49.260;10.496;2023-11-21T01:20:13;7.80;;;2.20;;
26600;SDS011;14241;49.260;10.496;2023-11-21T01:22:38;5.97;;;2.27;;
26600;SDS011;14241;49.260;10.496;2023-11-21T01:25:04;5.60;;;2.40;;
26600;SDS011;14241;49.260;10.496;2023-11-21T01:27:32;4.35;;;2.25;;
26600;SDS011;14241;49.260;10.496;2023-11-21T01:29:57;7.37;;;2.30;;
26600;SDS011;14241;49.260;10.496;2023-11-21T01:32:22;5.27;;;2.53;;
26600;SDS011;14241;49.260;10.496;2023-11-21T01:34:50;3.53;;;1.90;;
26600;SDS011;14241;49.260;10.496;2023-11-21T01:37:15;3.33;;;1.83;;
26600;SDS011;14241;49.260;10.496;2023-11-21T01:39:42;8.40;;;2.40;;
26600;SDS011;14241;49.260;10.496;2023-11-21T01:42:07;5.53;;;2.33;;
26600;SDS011;14241;49.260;10.496;2023-11-21T01:44:32;6.35;;;2.03;;
26600;SDS011;14241;49.260;10.496;2023-11-21T01:46:58;4.40;;;2.30;;
26600;SDS011;14241;49.260;10.496;2023-11-21T01:49:23;6.00;;;3.13;;
26600;SDS011;14241;49.260;10.496;2023-11-21T01:51:49;4.27;;;2.73;;
26600;SDS011;14241;49.260;10.496;2023-11-21T01:54:15;6.05;;;2.33;;
26600;SDS011;14241;49.260;10.496;2023-11-21T01:56:42;6.28;;;2.42;;
26600;SDS011;14241;49.260;10.496;2023-11-21T01:59:07;6.53;;;2.97;;
26600;SDS011;14241;49.260;10.496;2023-11-21T02:01:33;6.77;;;2.23;;
26600;SDS011;14241;49.260;10.496;2023-11-21T02:03:58;6.32;;;2.30;;
26600;SDS011;14241;49.260;10.496;2023-11-21T02:06:23;5.60;;;2.77;;
26600;SDS011;14241;49.260;10.496;2023-11-21T02:08:49;4.85;;;2.35;;
26600;SDS011;14241;49.260;10.496;2023-11-21T02:11:15;5.18;;;2.70;;
26600;SDS011;14241;49.260;10.496;2023-11-21T02:13:41;4.82;;;2.75;;
26600;SDS011;14241;49.260;10.496;2023-11-21T02:16:08;7.75;;;2.78;;
26600;SDS011;14241;49.260;10.496;2023-11-21T02:18:34;6.65;;;2.83;;
26600;SDS011;14241;49.260;10.496;2023-11-21T02:20:59;3.03;;;1.70;;
26600;SDS011;14241;49.260;10.496;2023-11-21T02:23:27;5.13;;;2.30;;
26600;SDS011;14241;49.260;10.496;2023-11-21T02:25:53;7.72;;;2.30;;
26600;SDS011;14241;49.260;10.496;2023-11-21T02:28:19;3.45;;;2.33;;
26600;SDS011;14241;49.260;10.496;2023-11-21T02:30:51;7.05;;;2.50;;
26600;SDS011;14241;49.260;10.496;2023-11-21T02:33:20;6.30;;;3.72;;
26600;SDS011;14241;49.260;10.496;2023-11-21T02:35:45;7.68;;;2.45;;
26600;SDS011;14241;49.260;10.496;2023-11-21T02:38:11;6.72;;;3.22;;
26600;SDS011;14241;49.260;10.496;2023-11-21T02:40:37;5.63;;;4.15;;
26600;SDS011;14241;49.260;10.496;2023-11-21T02:43:02;8.93;;;5.73;;
26600;SDS011;14241;49.260;10.496;2023-11-21T02:45:27;8.10;;;5.10;;
26600;SDS011;14241;49.260;10.496;2023-11-21T02:47:52;4.32;;;2.22;;
26600;SDS011;14241;49.260;10.496;2023-11-21T02:50:21;5.20;;;2.72;;
26600;SDS011;14241;49.260;10.496;2023-11-21T02:52:47;5.53;;;2.60;;
26600;SDS011;14241;49.260;10.496;2023-11-21T02:55:12;6.30;;;2.77;;
26600;SDS011;14241;49.260;10.496;2023-11-21T02:57:38;4.03;;;2.33;;
26600;SDS011;14241;49.260;10.496;2023-11-21T03:00:03;5.07;;;2.58;;
26600;SDS011;14241;49.260;10.496;2023-11-21T03:02:32;4.65;;;2.53;;
26600;SDS011;14241;49.260;10.496;2023-11-21T03:04:57;5.53;;;2.90;;
26600;SDS011;14241;49.260;10.496;2023-11-21T03:07:22;5.33;;;2.80;;
26600;SDS011;14241;49.260;10.496;2023-11-21T03:09:48;4.85;;;2.45;;
26600;SDS011;14241;49.260;10.496;2023-11-21T03:12:13;6.47;;;3.10;;
26600;SDS011;14241;49.260;10.496;2023-11-21T03:14:41;5.65;;;2.80;;
26600;SDS011;14241;49.260;10.496;2023-11-21T03:17:06;4.28;;;2.67;;
26600;SDS011;14241;49.260;10.496;2023-11-21T03:19:31;5.47;;;3.10;;
26600;SDS011;14241;49.260;10.496;2023-11-21T03:21:57;3.50;;;2.60;;
26600;SDS011;14241;49.260;10.496;2023-11-21T03:24:22;5.70;;;3.05;;
26600;SDS011;14241;49.260;10.496;2023-11-21T03:26:48;6.65;;;3.00;;
26600;SDS011;14241;49.260;10.496;2023-11-21T03:29:13;5.60;;;3.00;;
26600;SDS011;14241;49.260;10.496;2023-11-21T03:31:39;4.97;;;3.03;;
26600;SDS011;14241;49.260;10.496;2023-11-21T03:34:05;6.85;;;3.47;;
26600;SDS011;14241;49.260;10.496;2023-11-21T03:36:30;7.70;;;3.23;;
26600;SDS011;14241;49.260;10.496;2023-11-21T03:38:55;6.25;;;3.40;;
26600;SDS011;14241;49.260;10.496;2023-11-21T03:41:20;4.57;;;3.42;;
26600;SDS011;14241;49.260;10.496;2023-11-21T03:43:46;4.97;;;3.23;;
26600;SDS011;14241;49.260;10.496;2023-11-21T03:46:11;7.27;;;3.40;;
26600;SDS011;14241;49.260;10.496;2023-11-21T03:48:37;7.50;;;3.40;;
26600;SDS011;14241;49.260;10.496;2023-11-21T03:51:02;5.45;;;3.50;;
26600;SDS011;14241;49.260;10.496;2023-11-21T03:53:28;4.18;;;3.65;;
26600;SDS011;14241;49.260;10.496;2023-11-21T03:55:53;7.82;;;3.50;;
26600;SDS011;14241;49.260;10.496;2023-11-21T03:58:18;6.50;;;3.53;;
26600;SDS011;14241;49.260;10.496;2023-11-21T04:00:43;6.57;;;4.13;;
26600;SDS011;14241;49.260;10.496;2023-11-21T04:03:08;5.53;;;3.70;;
26600;SDS011;14241;49.260;10.496;2023-11-21T04:05:34;5.37;;;3.57;;
26600;SDS011;14241;49.260;10.496;2023-11-21T04:07:59;8.10;;;3.70;;
26600;SDS011;14241;49.260;10.496;2023-11-21T04:10:24;4.27;;;3.37;;
26600;SDS011;14241;49.260;10.496;2023-11-21T04:12:49;6.30;;;4.30;;
26600;SDS011;14241;49.260;10.496;2023-11-21T04:15:14;8.37;;;4.03;;
26600;SDS011;14241;49.260;10.496;2023-11-21T04:17:40;8.55;;;4.13;;
26600;SDS011;14241;49.260;10.496;2023-11-21T04:20:05;7.22;;;4.20;;
26600;SDS011;14241;49.260;10.496;2023-11-21T04:22:34;5.68;;;4.20;;
26600;SDS011;14241;49.260;10.496;2023-11-21T04:24:59;6.35;;;3.92;;
26600;SDS011;14241;49.260;10.496;2023-11-21T04:27:24;8.30;;;4.33;;
26600;SDS011;14241;49.260;10.496;2023-11-21T04:29:49;6.57;;;4.40;;
26600;SDS011;14241;49.260;10.496;2023-11-21T04:32:14;5.05;;;4.40;;
26600;SDS011;14241;49.260;10.496;2023-11-21T04:34:40;9.47;;;4.57;;
26600;SDS011;14241;49.260;10.496;2023-11-21T04:37:05;6.00;;;4.10;;
26600;SDS011;14241;49.260;10.496;2023-11-21T04:39:31;8.85;;;4.88;;
26600;SDS011;14241;49.260;10.496;2023-11-21T04:41:56;7.30;;;4.30;;
26600;SDS011;14241;49.260;10.496;2023-11-21T04:44:21;8.40;;;5.27;;
26600;SDS011;14241;49.260;10.496;2023-11-21T04:46:46;7.47;;;4.60;;
26600;SDS011;14241;49.260;10.496;2023-11-21T04:49:12;7.37;;;4.33;;
26600;SDS011;14241;49.260;10.496;2023-11-21T04:51:37;5.93;;;4.43;;
26600;SDS011;14241;49.260;10.496;2023-11-21T04:54:02;5.10;;;4.00;;
26600;SDS011;14241;49.260;10.496;2023-11-21T04:56:27;7.95;;;4.88;;
26600;SDS011;14241;49.260;10.496;2023-11-21T04:58:53;6.90;;;4.57;;
26600;SDS011;14241;49.260;10.496;2023-11-21T05:01:18;6.80;;;4.75;;
26600;SDS011;14241;49.260;10.496;2023-11-21T05:03:43;5.70;;;4.07;;
26600;SDS011;14241;49.260;10.496;2023-11-21T05:06:12;9.17;;;4.70;;
26600;SDS011;14241;49.260;10.496;2023-11-21T05:08:37;8.25;;;4.90;;
26600;SDS011;14241;49.260;10.496;2023-11-21T05:11:02;6.75;;;4.72;;
26600;SDS011;14241;49.260;10.496;2023-11-21T05:13:28;6.78;;;4.72;;
26600;SDS011;14241;49.260;10.496;2023-11-21T05:15:56;6.60;;;4.68;;
26600;SDS011;14241;49.260;10.496;2023-11-21T05:18:22;7.35;;;5.20;;
26600;SDS011;14241;49.260;10.496;2023-11-21T05:20:47;10.90;;;5.10;;
26600;SDS011;14241;49.260;10.496;2023-11-21T05:23:12;6.50;;;4.90;;
26600;SDS011;14241;49.260;10.496;2023-11-21T05:25:38;6.73;;;4.73;;
26600;SDS011;14241;49.260;10.496;2023-11-21T05:28:03;6.85;;;5.05;;
26600;SDS011;14241;49.260;10.496;2023-11-21T05:30:29;6.93;;;4.63;;
26600;SDS011;14241;49.260;10.496;2023-11-21T05:32:54;8.97;;;5.07;;
26600;SDS011;14241;49.260;10.496;2023-11-21T05:35:19;6.10;;;5.13;;
26600;SDS011;14241;49.260;10.496;2023-11-21T05:37:44;6.67;;;4.90;;
26600;SDS011;14241;49.260;10.496;2023-11-21T05:40:10;5.85;;;4.55;;
26600;SDS011;14241;49.260;10.496;2023-11-21T05:42:35;7.53;;;5.30;;
26600;SDS011;14241;49.260;10.496;2023-11-21T05:45:01;6.55;;;5.40;;
26600;SDS011;14241;49.260;10.496;2023-11-21T05:47:39;6.00;;;4.43;;
26600;SDS011;14241;49.260;10.496;2023-11-21T05:50:05;7.82;;;4.93;;
26600;SDS011;14241;49.260;10.496;2023-11-21T05:52:31;6.78;;;4.70;;
26600;SDS011;14241;49.260;10.496;2023-11-21T05:54:57;5.10;;;4.13;;
26600;SDS011;14241;49.260;10.496;2023-11-21T05:57:22;5.68;;;3.75;;
26600;SDS011;14241;49.260;10.496;2023-11-21T05:59:48;4.40;;;3.73;;
26600;SDS011;14241;49.260;10.496;2023-11-21T06:02:13;5.43;;;3.73;;
26600;SDS011;14241;49.260;10.496;2023-11-21T06:04:38;4.17;;;3.20;;
26600;SDS011;14241;49.260;10.496;2023-11-21T06:07:03;4.00;;;3.13;;
26600;SDS011;14241;49.260;10.496;2023-11-21T06:09:29;3.47;;;3.17;;
26600;SDS011;14241;49.260;10.496;2023-11-21T06:11:54;4.10;;;2.80;;
26600;SDS011;14241;49.260;10.496;2023-11-21T06:14:19;3.28;;;2.97;;
26600;SDS011;14241;49.260;10.496;2023-11-21T06:16:44;3.20;;;2.90;;
26600;SDS011;14241;49.260;10.496;2023-11-21T06:19:10;5.80;;;3.30;;
26600;SDS011;14241;49.260;10.496;2023-11-21T06:21:35;4.72;;;3.20;;
26600;SDS011;14241;49.260;10.496;2023-11-21T06:24:01;3.65;;;3.15;;
26600;SDS011;14241;49.260;10.496;2023-11-21T06:26:26;3.92;;;2.83;;
26600;SDS011;14241;49.260;10.496;2023-11-21T06:28:51;3.35;;;2.97;;
26600;SDS011;14241;49.260;10.496;2023-11-21T06:31:17;3.22;;;2.70;;
26600;SDS011;14241;49.260;10.496;2023-11-21T06:33:43;3.42;;;2.78;;
26600;SDS011;14241;49.260;10.496;2023-11-21T06:36:08;4.07;;;3.10;;
26600;SDS011;14241;49.260;10.496;2023-11-21T06:38:36;4.15;;;3.50;;
26600;SDS011;14241;49.260;10.496;2023-11-21T06:41:01;4.83;;;3.30;;
26600;SDS011;14241;49.260;10.496;2023-11-21T06:43:29;4.72;;;3.47;;
26600;SDS011;14241;49.260;10.496;2023-11-21T06:45:56;3.92;;;3.40;;
26600;SDS011;14241;49.260;10.496;2023-11-21T06:48:21;6.03;;;3.53;;
26600;SDS011;14241;49.260;10.496;2023-11-21T06:50:46;3.83;;;3.50;;
26600;SDS011;14241;49.260;10.496;2023-11-21T06:53:11;4.53;;;3.60;;
26600;SDS011;14241;49.260;10.496;2023-11-21T06:55:38;3.47;;;2.95;;
26600;SDS011;14241;49.260;10.496;2023-11-21T06:58:03;3.47;;;3.13;;
26600;SDS011;14241;49.260;10.496;2023-11-21T07:00:30;4.90;;;3.63;;
26600;SDS011;14241;49.260;10.496;2023-11-21T07:02:55;6.40;;;3.77;;
26600;SDS011;14241;49.260;10.496;2023-11-21T07:05:20;3.90;;;3.30;;
26600;SDS011;14241;49.260;10.496;2023-11-21T07:07:46;7.78;;;3.70;;
26600;SDS011;14241;49.260;10.496;2023-11-21T07:10:13;5.30;;;3.00;;
26600;SDS011;14241;49.260;10.496;2023-11-21T07:12:38;4.18;;;3.25;;
26600;SDS011;14241;49.260;10.496;2023-11-21T07:15:04;3.67;;;3.38;;
26600;SDS011;14241;49.260;10.496;2023-11-21T07:17:32;4.85;;;3.65;;
26600;SDS011;14241;49.260;10.496;2023-11-21T07:19:57;5.87;;;3.90;;
26600;SDS011;14241;49.260;10.496;2023-11-21T07:22:22;5.13;;;4.00;;
26600;SDS011;14241;49.260;10.496;2023-11-21T07:24:48;9.87;;;8.47;;
26600;SDS011;14241;49.260;10.496;2023-11-21T07:27:13;10.68;;;9.20;;
26600;SDS011;14241;49.260;10.496;2023-11-21T07:29:38;7.55;;;6.80;;
26600;SDS011;14241;49.260;10.496;2023-11-21T07:32:04;9.05;;;7.70;;
26600;SDS011;14241;49.260;10.496;2023-11-21T07:34:30;9.48;;;8.30;;
26600;SDS011;14241;49.260;10.496;2023-11-21T07:36:55;10.25;;;7.80;;
26600;SDS011;14241;49.260;10.496;2023-11-21T07:39:21;9.90;;;7.55;;
26600;SDS011;14241;49.260;10.496;2023-11-21T07:41:46;10.07;;;6.53;;
26600;SDS011;14241;49.260;10.496;2023-11-21T07:44:13;5.13;;;4.63;;
26600;SDS011;14241;49.260;10.496;2023-11-21T07:46:38;5.07;;;4.20;;
26600;SDS011;14241;49.260;10.496;2023-11-21T07:49:03;11.23;;;8.20;;
26600;SDS011;14241;49.260;10.496;2023-11-21T07:51:29;7.10;;;5.63;;
26600;SDS011;14241;49.260;10.496;2023-11-21T07:53:54;7.53;;;5.47;;
26600;SDS011;14241;49.260;10.496;2023-11-21T07:56:19;7.90;;;6.90;;
26600;SDS011;14241;49.260;10.496;2023-11-21T07:58:44;5.30;;;4.80;;
26600;SDS011;14241;49.260;10.496;2023-11-21T08:01:10;8.07;;;6.30;;
26600;SDS011;14241;49.260;10.496;2023-11-21T08:03:36;5.00;;;4.40;;
26600;SDS011;14241;49.260;10.496;2023-11-21T08:06:01;4.30;;;3.73;;
26600;SDS011;14241;49.260;10.496;2023-11-21T08:08:28;6.05;;;5.40;;
26600;SDS011;14241;49.260;10.496;2023-11-21T08:10:53;5.40;;;4.72;;
26600;SDS011;14241;49.260;10.496;2023-11-21T08:13:25;3.20;;;2.90;;
26600;SDS011;14241;49.260;10.496;2023-11-21T08:15:50;4.30;;;3.20;;
26600;SDS011;14241;49.260;10.496;2023-11-21T08:18:15;3.17;;;2.87;;
26600;SDS011;14241;49.260;10.496;2023-11-21T08:20:42;3.40;;;3.08;;
26600;SDS011;14241;49.260;10.496;2023-11-21T08:23:07;4.17;;;2.90;;
26600;SDS011;14241;49.260;10.496;2023-11-21T08:25:32;3.40;;;2.90;;
26600;SDS011;14241;49.260;10.496;2023-11-21T08:27:59;3.53;;;2.60;;
26600;SDS011;14241;49.260;10.496;2023-11-21T08:30:24;4.60;;;3.07;;
26600;SDS011;14241;49.260;10.496;2023-11-21T08:32:50;2.97;;;2.63;;
26600;SDS011;14241;49.260;10.496;2023-11-21T08:35:17;2.38;;;2.17;;
26600;SDS011;14241;49.260;10.496;2023-11-21T08:37:42;3.40;;;1.95;;
26600;SDS011;14241;49.260;10.496;2023-11-21T08:40:08;2.60;;;2.40;;
26600;SDS011;14241;49.260;10.496;2023-11-21T08:42:34;2.53;;;2.33;;
26600;SDS011;14241;49.260;10.496;2023-11-21T08:44:59;2.30;;;1.90;;
26600;SDS011;14241;49.260;10.496;2023-11-21T08:47:25;2.00;;;1.50;;
26600;SDS011;14241;49.260;10.496;2023-11-21T08:49:51;2.03;;;1.75;;
26600;SDS011;14241;49.260;10.496;2023-11-21T08:52:18;2.53;;;1.70;;
26600;SDS011;14241;49.260;10.496;2023-11-21T08:54:43;1.75;;;1.42;;
26600;SDS011;14241;49.260;10.496;2023-11-21T08:57:10;2.13;;;1.88;;
26600;SDS011;14241;49.260;10.496;2023-11-21T08:59:35;2.83;;;2.40;;
26600;SDS011;14241;49.260;10.496;2023-11-21T09:02:00;1.73;;;1.63;;
26600;SDS011;14241;49.260;10.496;2023-11-21T09:04:25;5.47;;;1.97;;
26600;SDS011;14241;49.260;10.496;2023-11-21T09:06:51;2.30;;;1.70;;
26600;SDS011;14241;49.260;10.496;2023-11-21T09:09:16;4.73;;;4.23;;
26600;SDS011;14241;49.260;10.496;2023-11-21T09:11:41;8.50;;;7.50;;
26600;SDS011;14241;49.260;10.496;2023-11-21T09:14:06;4.35;;;3.95;;
26600;SDS011;14241;49.260;10.496;2023-11-21T09:16:32;3.95;;;2.65;;
26600;SDS011;14241;49.260;10.496;2023-11-21T09:18:58;3.85;;;2.40;;
26600;SDS011;14241;49.260;10.496;2023-11-21T09:21:24;3.47;;;3.17;;
26600;SDS011;14241;49.260;10.496;2023-11-21T09:23:50;2.28;;;1.98;;
26600;SDS011;14241;49.260;10.496;2023-11-21T09:26:15;2.60;;;2.40;;
26600;SDS011;14241;49.260;10.496;2023-11-21T09:28:41;3.08;;;1.90;;
26600;SDS011;14241;49.260;10.496;2023-11-21T09:31:09;2.42;;;2.22;;
26600;SDS011;14241;49.260;10.496;2023-11-21T09:33:34;2.60;;;2.40;;
26600;SDS011;14241;49.260;10.496;2023-11-21T09:36:00;2.73;;;2.10;;
26600;SDS011;14241;49.260;10.496;2023-11-21T09:38:26;2.65;;;2.40;;
26600;SDS011;14241;49.260;10.496;2023-11-21T09:40:53;2.53;;;2.33;;
26600;SDS011;14241;49.260;10.496;2023-11-21T09:43:20;2.53;;;2.33;;
26600;SDS011;14241;49.260;10.496;2023-11-21T09:45:46;2.78;;;2.10;;
26600;SDS011;14241;49.260;10.496;2023-11-21T09:48:12;2.45;;;2.10;;
26600;SDS011;14241;49.260;10.496;2023-11-21T09:50:38;3.58;;;1.98;;
26600;SDS011;14241;49.260;10.496;2023-11-21T09:53:17;1.90;;;1.80;;
26600;SDS011;14241;49.260;10.496;2023-11-21T09:55:44;3.58;;;2.70;;
26600;SDS011;14241;49.260;10.496;2023-11-21T09:58:09;3.78;;;2.10;;
26600;SDS011;14241;49.260;10.496;2023-11-21T10:00:37;4.80;;;2.30;;
26600;SDS011;14241;49.260;10.496;2023-11-21T10:03:04;2.95;;;2.55;;
26600;SDS011;14241;49.260;10.496;2023-11-21T10:05:29;2.80;;;2.60;;
26600;SDS011;14241;49.260;10.496;2023-11-21T10:07:59;3.13;;;2.35;;
26600;SDS011;14241;49.260;10.496;2023-11-21T10:10:24;3.30;;;2.45;;
26600;SDS011;14241;49.260;10.496;2023-11-21T10:12:51;2.90;;;2.70;;
26600;SDS011;14241;49.260;10.496;2023-11-21T10:15:23;2.70;;;2.50;;
26600;SDS011;14241;49.260;10.496;2023-11-21T10:17:52;3.50;;;2.63;;
26600;SDS011;14241;49.260;10.496;2023-11-21T10:20:18;5.93;;;2.83;;
26600;SDS011;14241;49.260;10.496;2023-11-21T10:22:44;3.28;;;2.95;;
26600;SDS011;14241;49.260;10.496;2023-11-21T10:25:10;2.60;;;2.40;;
26600;SDS011;14241;49.260;10.496;2023-11-21T10:27:36;2.45;;;2.17;;
26600;SDS011;14241;49.260;10.496;2023-11-21T10:30:03;2.50;;;2.30;;
26600;SDS011;14241;49.260;10.496;2023-11-21T10:32:29;3.28;;;2.58;;
26600;SDS011;14241;49.260;10.496;2023-11-21T10:35:01;2.60;;;2.40;;
26600;SDS011;14241;49.260;10.496;2023-11-21T10:37:31;2.70;;;2.10;;
26600;SDS011;14241;49.260;10.496;2023-11-21T10:39:59;3.60;;;1.90;;
26600;SDS011;14241;49.260;10.496;2023-11-21T10:42:24;2.50;;;2.00;;
26600;SDS011;14241;49.260;10.496;2023-11-21T10:44:50;2.63;;;2.00;;
26600;SDS011;14241;49.260;10.496;2023-11-21T10:47:15;2.28;;;2.08;;
26600;SDS011;14241;49.260;10.496;2023-11-21T10:49:41;3.92;;;2.20;;
26600;SDS011;14241;49.260;10.496;2023-11-21T10:52:06;2.72;;;2.33;;
26600;SDS011;14241;49.260;10.496;2023-11-21T10:54:31;2.70;;;2.47;;
26600;SDS011;14241;49.260;10.496;2023-11-21T10:56:57;3.38;;;2.45;;
26600;SDS011;14241;49.260;10.496;2023-11-21T10:59:23;2.80;;;2.10;;
26600;SDS011;14241;49.260;10.496;2023-11-21T11:01:51;2.58;;;2.00;;
26600;SDS011;14241;49.260;10.496;2023-11-21T11:04:18;4.88;;;2.33;;
26600;SDS011;14241;49.260;10.496;2023-11-21T11:06:43;2.30;;;2.10;;
26600;SDS011;14241;49.260;10.496;2023-11-21T11:09:10;3.25;;;2.38;;
26600;SDS011;14241;49.260;10.496;2023-11-21T11:11:38;3.30;;;2.80;;
26600;SDS011;14241;49.260;10.496;2023-11-21T11:14:06;3.65;;;2.85;;
26600;SDS011;14241;49.260;10.496;2023-11-21T11:16:31;3.40;;;3.10;;
26600;SDS011;14241;49.260;10.496;2023-11-21T11:18:57;3.25;;;2.90;;
26600;SDS011;14241;49.260;10.496;2023-11-21T11:21:36;5.03;;;3.20;;
26600;SDS011;14241;49.260;10.496;2023-11-21T11:24:25;3.83;;;3.17;;
26600;SDS011;14241;49.260;10.496;2023-11-21T11:32:12;4.43;;;3.97;;
26600;SDS011;14241;49.260;10.496;2023-11-21T11:34:43;4.00;;;3.70;;
26600;SDS011;14241;49.260;10.496;2023-11-21T11:37:11;4.15;;;3.60;;
26600;SDS011;14241;49.260;10.496;2023-11-21T11:39:39;5.63;;;4.05;;
26600;SDS011;14241;49.260;10.496;2023-11-21T11:42:07;4.75;;;3.85;;
26600;SDS011;14241;49.260;10.496;2023-11-21T11:47:13;4.55;;;4.15;;
26600;SDS011;14241;49.260;10.496;2023-11-21T11:49:54;6.63;;;4.18;;
26600;SDS011;14241;49.260;10.496;2023-11-21T11:52:41;4.95;;;4.53;;
26600;SDS011;14241;49.260;10.496;2023-11-21T11:55:09;5.53;;;4.70;;
26600;SDS011;14241;49.260;10.496;2023-11-21T11:57:38;4.45;;;4.05;;
26600;SDS011;14241;49.260;10.496;2023-11-21T12:00:07;4.88;;;4.30;;
26600;SDS011;14241;49.260;10.496;2023-11-21T12:02:36;4.70;;;4.30;;
26600;SDS011;14241;49.260;10.496;2023-11-21T12:05:06;6.35;;;4.82;;
26600;SDS011;14241;49.260;10.496;2023-11-21T12:10:11;5.30;;;4.80;;
26600;SDS011;14241;49.260;10.496;2023-11-21T12:12:37;5.53;;;5.00;;
26600;SDS011;14241;49.260;10.496;2023-11-21T12:15:04;6.32;;;4.78;;
26600;SDS011;14241;49.260;10.496;2023-11-21T12:17:30;5.07;;;4.60;;
26600;SDS011;14241;49.260;10.496;2023-11-21T12:20:01;5.47;;;4.70;;
26600;SDS011;14241;49.260;10.496;2023-11-21T12:22:27;6.68;;;5.15;;
26600;SDS011;14241;49.260;10.496;2023-11-21T12:24:52;6.15;;;5.30;;
26600;SDS011;14241;49.260;10.496;2023-11-21T12:27:17;5.40;;;4.90;;
26600;SDS011;14241;49.260;10.496;2023-11-21T12:29:43;5.68;;;5.18;;
26600;SDS011;14241;49.260;10.496;2023-11-21T12:32:08;5.68;;;4.25;;
26600;SDS011;14241;49.260;10.496;2023-11-21T12:34:35;5.07;;;4.63;;
26600;SDS011;14241;49.260;10.496;2023-11-21T12:37:00;7.37;;;4.43;;
26600;SDS011;14241;49.260;10.496;2023-11-21T12:39:26;5.65;;;5.05;;
26600;SDS011;14241;49.260;10.496;2023-11-21T12:41:51;6.30;;;4.75;;
26600;SDS011;14241;49.260;10.496;2023-11-21T12:44:16;4.60;;;4.20;;
26600;SDS011;14241;49.260;10.496;2023-11-21T12:46:42;5.20;;;4.20;;
26600;SDS011;14241;49.260;10.496;2023-11-21T12:49:07;4.72;;;4.00;;
26600;SDS011;14241;49.260;10.496;2023-11-21T12:51:33;3.80;;;2.80;;
26600;SDS011;14241;49.260;10.496;2023-11-21T12:53:59;2.60;;;2.40;;
26600;SDS011;14241;49.260;10.496;2023-11-21T12:56:24;4.38;;;2.90;;
26600;SDS011;14241;49.260;10.496;2023-11-21T12:58:49;3.58;;;2.70;;
26600;SDS011;14241;49.260;10.496;2023-11-21T13:01:17;3.53;;;2.78;;
26600;SDS011;14241;49.260;10.496;2023-11-21T13:03:46;3.20;;;2.90;;
26600;SDS011;14241;49.260;10.496;2023-11-21T13:06:13;3.05;;;2.70;;
26600;SDS011;14241;49.260;10.496;2023-11-21T13:08:38;5.28;;;2.63;;
26600;SDS011;14241;49.260;10.496;2023-11-21T13:11:04;3.72;;;2.78;;
26600;SDS011;14241;49.260;10.496;2023-11-21T13:13:30;3.22;;;2.88;;
26600;SDS011;14241;49.260;10.496;2023-11-21T13:15:58;3.65;;;2.40;;
26600;SDS011;14241;49.260;10.496;2023-11-21T13:18:26;3.13;;;2.58;;
26600;SDS011;14241;49.260;10.496;2023-11-21T13:20:52;3.70;;;2.53;;
26600;SDS011;14241;49.260;10.496;2023-11-21T13:23:17;2.72;;;2.40;;
26600;SDS011;14241;49.260;10.496;2023-11-21T13:25:42;3.00;;;2.50;;
26600;SDS011;14241;49.260;10.496;2023-11-21T13:28:10;2.80;;;2.60;;
26600;SDS011;14241;49.260;10.496;2023-11-21T13:30:35;3.58;;;3.28;;
26600;SDS011;14241;49.260;10.496;2023-11-21T13:33:01;3.38;;;3.08;;
26600;SDS011;14241;49.260;10.496;2023-11-21T13:35:30;4.28;;;3.58;;
26600;SDS011;14241;49.260;10.496;2023-11-21T13:38:12;4.03;;;3.63;;
26600;SDS011;14241;49.260;10.496;2023-11-21T13:40:38;4.07;;;3.72;;
26600;SDS011;14241;49.260;10.496;2023-11-21T13:43:14;6.75;;;4.15;;
26600;SDS011;14241;49.260;10.496;2023-11-21T13:45:40;5.93;;;4.10;;
26600;SDS011;14241;49.260;10.496;2023-11-21T13:48:06;5.78;;;4.40;;
26600;SDS011;14241;49.260;10.496;2023-11-21T13:50:38;5.53;;;4.13;;
26600;SDS011;14241;49.260;10.496;2023-11-21T13:53:04;5.05;;;4.50;;
26600;SDS011;14241;49.260;10.496;2023-11-21T13:55:47;4.80;;;4.05;;
26600;SDS011;14241;49.260;10.496;2023-11-21T13:58:14;4.97;;;4.47;;
26600;SDS011;14241;49.260;10.496;2023-11-21T14:00:44;6.97;;;5.00;;
26600;SDS011;14241;49.260;10.496;2023-11-21T14:03:13;6.90;;;5.30;;
26600;SDS011;14241;49.260;10.496;2023-11-21T14:05:50;5.97;;;4.82;;
26600;SDS011;14241;49.260;10.496;2023-11-21T14:08:20;4.93;;;4.53;;
26600;SDS011;14241;49.260;10.496;2023-11-21T14:10:47;5.47;;;4.53;;
26600;SDS011;14241;49.260;10.496;2023-11-21T14:13:22;5.47;;;4.97;;
26600;SDS011;14241;49.260;10.496;2023-11-21T14:15:48;5.10;;;4.60;;
26600;SDS011;14241;49.260;10.496;2023-11-21T14:18:16;5.10;;;4.60;;
26600;SDS011;14241;49.260;10.496;2023-11-21T14:20:42;5.75;;;4.90;;
26600;SDS011;14241;49.260;10.496;2023-11-21T14:23:07;4.72;;;4.22;;
26600;SDS011;14241;49.260;10.496;2023-11-21T14:25:36;5.35;;;4.80;;
26600;SDS011;14241;49.260;10.496;2023-11-21T14:28:02;4.75;;;4.25;;
26600;SDS011;14241;49.260;10.496;2023-11-21T14:30:28;5.97;;;4.43;;
26600;SDS011;14241;49.260;10.496;2023-11-21T14:32:55;7.07;;;4.00;;
26600;SDS011;14241;49.260;10.496;2023-11-21T14:35:20;3.97;;;3.57;;
26600;SDS011;14241;49.260;10.496;2023-11-21T14:37:45;3.20;;;2.87;;